createdAt,value
2022-09-25T00:00:53.037Z,99870.59
2022-09-25T00:03:19.532Z,99875.78
2022-09-25T00:05:47.179Z,99873.34
2022-09-25T00:08:15.077Z,99870.66
2022-09-25T00:10:51.524Z,99880.22
2022-09-25T00:13:19.804Z,99881.34
2022-09-25T00:15:52.044Z,99879.88
2022-09-25T00:18:38.628Z,99876.41
2022-09-25T00:21:06.069Z,99875.22
2022-09-25T00:23:33.679Z,99881.84
2022-09-25T00:26:01.233Z,99878.94
2022-09-25T00:28:29.465Z,99871.88
2022-09-25T00:30:56.893Z,99873.44
2022-09-25T00:33:24.175Z,99871.88
2022-09-25T00:35:51.035Z,99871.00
2022-09-25T00:38:17.373Z,99861.41
2022-09-25T00:40:43.849Z,99861.78
2022-09-25T00:43:34.837Z,99862.41
2022-09-25T00:46:05.822Z,99860.84
2022-09-25T00:48:32.341Z,99860.66
2022-09-25T00:51:00.174Z,99861.66
2022-09-25T00:53:34.753Z,99858.75
2022-09-25T00:56:03.513Z,99859.69
2022-09-25T00:58:33.034Z,99857.97
2022-09-25T01:01:00.265Z,99862.44
2022-09-25T01:03:27.923Z,99858.19
2022-09-25T01:05:54.715Z,99857.31
2022-09-25T01:08:26.233Z,99857.28
2022-09-25T01:10:52.620Z,99854.72
2022-09-25T01:13:20.232Z,99857.56
2022-09-25T01:15:54.928Z,99852.13
2022-09-25T01:18:52.532Z,99859.53
2022-09-25T01:21:37.403Z,99856.38
2022-09-25T01:24:03.802Z,99852.63
2022-09-25T01:27:06.337Z,99854.09
2022-09-25T01:30:10.396Z,99859.03
2022-09-25T01:32:36.682Z,99843.16
2022-09-25T01:35:40.394Z,99846.72
2022-09-25T01:38:25.159Z,99839.38
2022-09-25T01:40:55.172Z,99839.69
2022-09-25T01:43:31.675Z,99842.91
2022-09-25T01:46:12.113Z,99846.47
2022-09-25T01:48:42.451Z,99847.28
2022-09-25T01:51:16.356Z,99837.56
2022-09-25T01:53:48.645Z,99844.03
2022-09-25T01:56:32.824Z,99838.84
2022-09-25T01:59:08.303Z,99834.19
2022-09-25T02:01:41.727Z,99826.34
2022-09-25T02:04:11.147Z,99831.59
2022-09-25T02:06:40.884Z,99835.31
2022-09-25T02:09:13.111Z,99831.03
2022-09-25T02:11:45.283Z,99832.53
2022-09-25T02:14:28.015Z,99836.78
2022-09-25T02:16:58.152Z,99839.69
2022-09-25T02:19:44.944Z,99833.13
2022-09-25T02:22:31.403Z,99829.63
2022-09-25T02:25:03.504Z,99839.81
2022-09-25T02:27:29.922Z,99829.69
2022-09-25T02:29:58.183Z,99834.72
2022-09-25T02:32:33.672Z,99830.81
2022-09-25T02:35:00.782Z,99834.59
2022-09-25T02:37:27.345Z,99828.50
2022-09-25T02:39:58.016Z,99835.50
2022-09-25T02:42:36.316Z,99834.59
2022-09-25T02:45:12.152Z,99832.63
2022-09-25T02:47:47.435Z,99837.13
2022-09-25T02:50:34.982Z,99836.88
2022-09-25T02:53:38.628Z,99834.03
2022-09-25T02:56:25.217Z,99837.91
2022-09-25T02:58:58.443Z,99831.84
2022-09-25T03:01:29.051Z,99829.63
2022-09-25T03:03:59.062Z,99834.69
2022-09-25T03:06:26.381Z,99824.00
2022-09-25T03:08:56.663Z,99832.97
2022-09-25T03:11:26.835Z,99834.91
2022-09-25T03:14:01.250Z,99840.13
2022-09-25T03:16:52.764Z,99838.44
2022-09-25T03:19:22.132Z,99838.53
2022-09-25T03:21:49.876Z,99835.84
2022-09-25T03:24:16.529Z,99846.78
2022-09-25T03:26:43.010Z,99838.75
2022-09-25T03:29:09.579Z,99843.16
2022-09-25T03:31:36.310Z,99838.13
2022-09-25T03:34:02.689Z,99841.97
2022-09-25T03:36:30.855Z,99842.81
2022-09-25T03:39:01.545Z,99839.53
2022-09-25T03:41:30.716Z,99831.03
2022-09-25T03:43:58.135Z,99830.50
2022-09-25T03:46:26.755Z,99841.97
2022-09-25T03:48:54.325Z,99839.53
2022-09-25T03:51:21.662Z,99831.66
2022-09-25T03:53:49.077Z,99833.59
2022-09-25T03:56:24.460Z,99831.31
2022-09-25T03:58:54.122Z,99832.09
2022-09-25T04:01:21.857Z,99830.81
2022-09-25T04:03:48.974Z,99825.50
2022-09-25T04:06:18.292Z,99827.97
2022-09-25T04:08:46.312Z,99824.19
2022-09-25T04:11:13.216Z,99820.97
2022-09-25T04:13:42.038Z,99821.97
2022-09-25T04:16:08.626Z,99826.00
2022-09-25T04:18:35.797Z,99822.88
2022-09-25T04:21:04.983Z,99832.09
2022-09-25T04:23:31.705Z,99824.94
2022-09-25T04:25:58.122Z,99834.53
2022-09-25T04:28:25.574Z,99832.88
2022-09-25T04:30:52.274Z,99829.75
2022-09-25T04:33:37.798Z,99826.31
2022-09-25T04:36:05.038Z,99832.19
2022-09-25T04:38:32.391Z,99829.59
2022-09-25T04:41:01.471Z,99835.69
2022-09-25T04:43:29.376Z,99836.63
2022-09-25T04:46:00.068Z,99836.25
2022-09-25T04:48:26.437Z,99832.63
2022-09-25T04:50:52.871Z,99831.03
2022-09-25T04:53:23.835Z,99832.91
2022-09-25T04:55:50.413Z,99835.59
2022-09-25T04:58:16.780Z,99833.66
2022-09-25T05:00:43.183Z,99838.19
2022-09-25T05:03:09.634Z,99831.34
2022-09-25T05:05:36.174Z,99831.03
2022-09-25T05:08:03.068Z,99834.53
2022-09-25T05:10:32.327Z,99839.88
2022-09-25T05:13:01.308Z,99840.84
2022-09-25T05:15:29.950Z,99833.66
2022-09-25T05:18:12.433Z,99831.53
2022-09-25T05:20:39.013Z,99830.13
2022-09-25T05:23:05.353Z,99833.25
2022-09-25T05:25:32.283Z,99824.22
2022-09-25T05:28:00.584Z,99831.53
2022-09-25T05:30:30.319Z,99836.94
2022-09-25T05:33:00.118Z,99836.38
2022-09-25T05:35:29.261Z,99837.19
2022-09-25T05:37:55.952Z,99838.75
2022-09-25T05:40:23.669Z,99837.28
2022-09-25T05:42:51.916Z,99838.84
2022-09-25T05:45:20.396Z,99848.81
2022-09-25T05:47:47.279Z,99848.88
2022-09-25T05:50:16.117Z,99842.75
2022-09-25T05:52:42.900Z,99848.00
2022-09-25T05:55:10.632Z,99841.00
2022-09-25T05:57:37.915Z,99847.22
2022-09-25T06:00:07.788Z,99846.28
2022-09-25T06:02:34.299Z,99849.53
2022-09-25T06:05:00.848Z,99856.59
2022-09-25T06:07:27.245Z,99863.44
2022-09-25T06:09:53.586Z,99854.41
2022-09-25T06:12:19.953Z,99853.41
2022-09-25T06:14:46.684Z,99848.06
2022-09-25T06:17:13.716Z,99859.28
2022-09-25T06:19:40.128Z,99859.44
2022-09-25T06:22:06.493Z,99862.03
2022-09-25T06:24:32.846Z,99862.75
2022-09-25T06:26:59.196Z,99870.47
2022-09-25T06:29:25.537Z,99856.47
2022-09-25T06:31:53.007Z,99865.50
2022-09-25T06:34:19.746Z,99862.63
2022-09-25T06:36:46.108Z,99859.47
2022-09-25T06:39:12.461Z,99865.59
2022-09-25T06:41:38.941Z,99861.59
2022-09-25T06:44:05.309Z,99864.81
2022-09-25T06:46:31.740Z,99863.31
2022-09-25T06:48:58.229Z,99869.13
2022-09-25T06:51:28.828Z,99866.44
2022-09-25T06:53:55.753Z,99857.47
2022-09-25T06:56:22.333Z,99862.81
2022-09-25T06:58:48.773Z,99863.25
2022-09-25T07:01:15.402Z,99862.13
2022-09-25T07:03:44.954Z,99865.13
2022-09-25T07:06:33.830Z,99866.16
2022-09-25T07:09:00.330Z,99863.31
2022-09-25T07:11:33.791Z,99862.81
2022-09-25T07:14:00.235Z,99866.31
2022-09-25T07:16:29.807Z,99869.47
2022-09-25T07:19:00.430Z,99867.75
2022-09-25T07:21:30.416Z,99872.44
2022-09-25T07:23:58.176Z,99871.78
2022-09-25T07:26:30.056Z,99869.63
2022-09-25T07:28:59.034Z,99871.38
2022-09-25T07:31:28.501Z,99869.41
2022-09-25T07:33:55.103Z,99874.03
2022-09-25T07:36:22.026Z,99874.53
2022-09-25T07:38:52.781Z,99869.00
2022-09-25T07:41:22.386Z,99869.25
2022-09-25T07:44:06.336Z,99869.78
2022-09-25T07:46:43.014Z,99874.81
2022-09-25T07:49:09.451Z,99873.31
2022-09-25T07:51:35.788Z,99874.09
2022-09-25T07:54:02.140Z,99873.31
2022-09-25T07:56:28.500Z,99878.06
2022-09-25T07:58:54.852Z,99878.09
2022-09-25T08:01:21.300Z,99871.03
2022-09-25T08:03:49.295Z,99877.13
2022-09-25T08:06:15.645Z,99877.47
2022-09-25T08:08:43.138Z,99871.94
2022-09-25T08:11:12.406Z,99879.34
2022-09-25T08:13:39.260Z,99882.81
2022-09-25T08:16:07.689Z,99887.44
2022-09-25T08:18:34.189Z,99877.72
2022-09-25T08:21:02.490Z,99889.75
2022-09-25T08:23:28.945Z,99893.06
2022-09-25T08:25:55.274Z,99883.84
2022-09-25T08:28:22.397Z,99886.69
2022-09-25T08:30:49.359Z,99880.41
2022-09-25T08:33:15.995Z,99876.75
2022-09-25T08:35:43.273Z,99873.41
2022-09-25T08:38:12.089Z,99884.59
2022-09-25T08:40:48.732Z,99891.53
2022-09-25T08:43:20.176Z,99880.97
2022-09-25T08:46:06.032Z,99877.91
2022-09-25T08:48:59.754Z,99878.00
2022-09-25T08:51:31.423Z,99881.53
2022-09-25T08:53:59.694Z,99878.25
2022-09-25T08:56:29.285Z,99877.22
2022-09-25T08:59:11.448Z,99881.94
2022-09-25T09:01:47.944Z,99884.44
2022-09-25T09:04:28.940Z,99879.50
2022-09-25T09:07:25.719Z,99878.19
2022-09-25T09:10:28.807Z,99879.84
2022-09-25T09:13:10.614Z,99881.47
2022-09-25T09:15:46.463Z,99883.22
2022-09-25T09:18:28.221Z,99888.59
2022-09-25T09:20:57.695Z,99893.41
2022-09-25T09:23:33.660Z,99892.09
2022-09-25T09:26:04.502Z,99894.72
2022-09-25T09:28:56.709Z,99894.97
2022-09-25T09:32:01.111Z,99897.91
2022-09-25T09:35:06.763Z,99888.41
2022-09-25T09:37:50.028Z,99890.53
2022-09-25T09:40:29.065Z,99883.06
2022-09-25T09:43:07.709Z,99892.97
2022-09-25T09:45:59.220Z,99886.41
2022-09-25T09:48:34.662Z,99884.06
2022-09-25T09:51:16.447Z,99882.50
2022-09-25T09:53:50.030Z,99880.00
2022-09-25T09:56:22.061Z,99877.06
2022-09-25T09:59:01.634Z,99871.88
2022-09-25T10:01:41.242Z,99876.38
2022-09-25T10:04:12.583Z,99876.75
2022-09-25T10:06:43.883Z,99877.88
2022-09-25T10:09:16.906Z,99878.25
2022-09-25T10:11:45.729Z,99873.44
2022-09-25T10:14:19.272Z,99878.88
2022-09-25T10:16:46.972Z,99872.22
2022-09-25T10:19:21.171Z,99873.78
2022-09-25T10:22:16.615Z,99873.44
2022-09-25T10:25:02.418Z,99878.28
2022-09-25T10:27:41.251Z,99877.22
2022-09-25T10:30:10.298Z,99874.13
2022-09-25T10:33:11.480Z,99875.91
2022-09-25T10:35:37.794Z,99876.22
2022-09-25T10:38:06.417Z,99872.78
2022-09-25T10:40:38.067Z,99873.28
2022-09-25T10:43:23.505Z,99872.06
2022-09-25T10:46:04.172Z,99877.25
2022-09-25T10:48:50.522Z,99872.78
2022-09-25T10:51:18.358Z,99870.41
2022-09-25T10:53:46.227Z,99871.47
2022-09-25T10:56:18.486Z,99866.56
2022-09-25T10:58:58.220Z,99872.88
2022-09-25T11:01:35.979Z,99871.88
2022-09-25T11:04:09.144Z,99868.31
2022-09-25T11:06:36.057Z,99874.66
2022-09-25T11:09:05.151Z,99874.56
2022-09-25T11:11:31.684Z,99876.47
2022-09-25T11:14:01.890Z,99866.69
2022-09-25T11:16:47.619Z,99871.50
2022-09-25T11:19:36.839Z,99872.84
2022-09-25T11:22:04.761Z,99883.81
2022-09-25T11:25:00.864Z,99889.03
2022-09-25T11:27:49.039Z,99883.72
2022-09-25T11:30:19.375Z,99876.28
2022-09-25T11:33:13.633Z,99886.16
2022-09-25T11:35:50.487Z,99878.22
2022-09-25T11:38:52.638Z,99885.81
2022-09-25T11:41:26.280Z,99883.91
2022-09-25T11:44:05.788Z,99885.03
2022-09-25T11:46:53.100Z,99887.97
2022-09-25T11:49:40.791Z,99894.88
2022-09-25T11:52:44.547Z,99888.78
2022-09-25T11:55:28.910Z,99891.28
2022-09-25T11:58:14.818Z,99889.84
2022-09-25T12:01:09.471Z,99891.44
2022-09-25T12:03:55.254Z,99890.44
2022-09-25T12:06:30.992Z,99896.50
2022-09-25T12:09:27.383Z,99891.31
2022-09-25T12:12:01.719Z,99888.41
2022-09-25T12:15:05.159Z,99893.91
2022-09-25T12:17:50.919Z,99891.34
2022-09-25T12:20:42.874Z,99896.69
2022-09-25T12:23:19.351Z,99893.50
2022-09-25T12:26:22.373Z,99894.34
2022-09-25T12:29:16.146Z,99890.63
2022-09-25T12:31:53.487Z,99893.28
2022-09-25T12:34:44.589Z,99892.72
2022-09-25T12:37:26.890Z,99886.50
2022-09-25T12:40:00.692Z,99889.19
2022-09-25T12:42:50.198Z,99889.28
2022-09-25T12:45:55.858Z,99890.59
2022-09-25T12:48:49.892Z,99901.53
2022-09-25T12:51:39.423Z,99902.88
2022-09-25T12:54:26.077Z,99903.34
2022-09-25T12:57:14.987Z,99899.09
2022-09-25T13:00:01.916Z,99905.81
2022-09-25T13:02:45.921Z,99904.34
2022-09-25T13:05:22.236Z,99906.50
2022-09-25T13:07:49.203Z,99904.81
2022-09-25T13:10:29.687Z,99902.06
2022-09-25T13:13:00.592Z,99903.84
2022-09-25T13:15:36.829Z,99900.78
2022-09-25T13:18:16.754Z,99898.47
2022-09-25T13:20:53.911Z,99904.06
2022-09-25T13:23:35.536Z,99905.69
2022-09-25T13:26:16.304Z,99900.81
2022-09-25T13:29:13.626Z,99903.75
2022-09-25T13:31:47.312Z,99904.81
2022-09-25T13:34:17.360Z,99890.28
2022-09-25T13:36:57.874Z,99899.41
2022-09-25T13:39:55.677Z,99894.63
2022-09-25T13:42:27.139Z,99902.44
2022-09-25T13:45:08.157Z,99898.19
2022-09-25T13:47:38.202Z,99894.78
2022-09-25T13:50:10.512Z,99899.56
2022-09-25T13:52:36.852Z,99902.78
2022-09-25T13:55:20.131Z,99908.03
2022-09-25T13:57:58.675Z,99900.69
2022-09-25T14:00:53.253Z,99897.84
2022-09-25T14:03:46.724Z,99903.03
2022-09-25T14:06:36.903Z,99892.69
2022-09-25T14:09:19.734Z,99887.53
2022-09-25T14:12:16.085Z,99893.41
2022-09-25T14:14:52.677Z,99882.47
2022-09-25T14:17:20.777Z,99878.66
2022-09-25T14:19:50.933Z,99882.38
2022-09-25T14:22:53.209Z,99880.06
2022-09-25T14:25:33.820Z,99884.56
2022-09-25T14:28:01.910Z,99881.72
2022-09-25T14:30:30.108Z,99884.19
2022-09-25T14:33:06.345Z,99881.16
2022-09-25T14:35:46.473Z,99884.38
2022-09-25T14:38:50.305Z,99882.84
2022-09-25T14:41:35.496Z,99886.66
2022-09-25T14:44:17.745Z,99881.16
2022-09-25T14:46:49.287Z,99878.97
2022-09-25T14:49:33.503Z,99882.97
2022-09-25T14:52:07.186Z,99872.72
2022-09-25T14:54:38.002Z,99881.84
2022-09-25T14:57:06.023Z,99875.72
2022-09-25T14:59:46.365Z,99878.34
2022-09-25T15:02:20.266Z,99878.28
2022-09-25T15:04:46.785Z,99879.09
2022-09-25T15:07:16.952Z,99870.03
2022-09-25T15:09:48.608Z,99873.81
2022-09-25T15:12:19.725Z,99868.78
2022-09-25T15:15:01.494Z,99870.63
2022-09-25T15:17:31.139Z,99874.84
2022-09-25T15:20:00.678Z,99878.81
2022-09-25T15:22:38.113Z,99871.38
2022-09-25T15:25:07.884Z,99870.44
2022-09-25T15:27:39.752Z,99862.97
2022-09-25T15:30:07.096Z,99870.66
2022-09-25T15:32:39.886Z,99871.53
2022-09-25T15:35:18.356Z,99881.03
2022-09-25T15:37:45.983Z,99879.09
2022-09-25T15:40:25.729Z,99882.91
2022-09-25T15:42:52.298Z,99875.91
2022-09-25T15:45:34.190Z,99873.69
2022-09-25T15:48:06.976Z,99870.34
2022-09-25T15:50:33.393Z,99869.03
2022-09-25T15:53:00.881Z,99867.22
2022-09-25T15:55:31.110Z,99874.97
2022-09-25T15:58:07.653Z,99869.78
2022-09-25T16:00:52.965Z,99869.13
2022-09-25T16:03:42.486Z,99864.41
2022-09-25T16:06:18.354Z,99863.72
2022-09-25T16:08:44.841Z,99861.03
2022-09-25T16:11:18.028Z,99868.56
2022-09-25T16:13:48.619Z,99861.13
2022-09-25T16:16:20.597Z,99862.53
2022-09-25T16:18:47.239Z,99862.78
2022-09-25T16:21:18.536Z,99869.47
2022-09-25T16:23:55.799Z,99867.63
2022-09-25T16:26:25.004Z,99864.50
2022-09-25T16:29:13.296Z,99865.63
2022-09-25T16:31:44.919Z,99865.72
2022-09-25T16:34:45.409Z,99867.53
2022-09-25T16:37:23.499Z,99873.25
2022-09-25T16:40:08.517Z,99871.84
2022-09-25T16:42:42.278Z,99868.03
2022-09-25T16:45:19.028Z,99865.44
2022-09-25T16:47:49.393Z,99869.28
2022-09-25T16:50:17.126Z,99869.19
2022-09-25T16:52:44.669Z,99868.78
2022-09-25T16:55:24.661Z,99860.41
2022-09-25T16:57:52.918Z,99858.00
2022-09-25T17:00:24.044Z,99855.41
2022-09-25T17:02:51.242Z,99858.84
2022-09-25T17:05:26.794Z,99860.91
2022-09-25T17:07:56.112Z,99861.44
2022-09-25T17:10:25.888Z,99861.13
2022-09-25T17:12:54.313Z,99857.19
2022-09-25T17:15:24.903Z,99854.94
2022-09-25T17:17:55.979Z,99859.75
2022-09-25T17:20:24.187Z,99859.84
2022-09-25T17:22:54.785Z,99861.66
2022-09-25T17:25:48.158Z,99857.66
2022-09-25T17:28:14.968Z,99861.53
2022-09-25T17:30:42.912Z,99860.03
2022-09-25T17:33:21.981Z,99856.66
2022-09-25T17:35:53.297Z,99859.41
2022-09-25T17:38:20.008Z,99864.38
2022-09-25T17:40:48.398Z,99871.78
2022-09-25T17:43:15.710Z,99871.50
2022-09-25T17:45:48.951Z,99871.78
2022-09-25T17:48:24.142Z,99867.16
2022-09-25T17:50:57.768Z,99877.47
2022-09-25T17:53:28.362Z,99877.91
2022-09-25T17:55:58.210Z,99876.41
2022-09-25T17:58:27.459Z,99887.09
2022-09-25T18:00:55.015Z,99884.88
2022-09-25T18:03:21.481Z,99875.41
2022-09-25T18:05:48.851Z,99883.56
2022-09-25T18:08:16.512Z,99887.56
2022-09-25T18:10:42.975Z,99887.41
2022-09-25T18:13:13.571Z,99888.38
2022-09-25T18:16:00.220Z,99890.69
2022-09-25T18:18:46.662Z,99899.63
2022-09-25T18:21:31.506Z,99898.47
2022-09-25T18:23:57.826Z,99908.78
2022-09-25T18:26:29.066Z,99900.56
2022-09-25T18:28:57.435Z,99902.22
2022-09-25T18:31:23.963Z,99905.59
2022-09-25T18:33:55.028Z,99901.34
2022-09-25T18:36:22.591Z,99899.56
2022-09-25T18:38:48.940Z,99896.06
2022-09-25T18:41:15.322Z,99896.94
2022-09-25T18:43:41.900Z,99892.41
2022-09-25T18:46:08.589Z,99892.97
2022-09-25T18:48:37.047Z,99893.91
2022-09-25T18:51:05.072Z,99889.78
2022-09-25T18:53:32.760Z,99886.31
2022-09-25T18:55:59.194Z,99887.13
2022-09-25T18:58:28.169Z,99900.69
2022-09-25T19:00:54.721Z,99897.16
2022-09-25T19:03:21.048Z,99899.97
2022-09-25T19:05:57.197Z,99891.75
2022-09-25T19:08:23.564Z,99890.00
2022-09-25T19:10:49.949Z,99896.28
2022-09-25T19:13:17.631Z,99894.50
2022-09-25T19:15:44.054Z,99888.06
2022-09-25T19:18:10.840Z,99890.81
2022-09-25T19:20:37.269Z,99897.94
2022-09-25T19:23:04.088Z,99894.72
2022-09-25T19:25:30.491Z,99899.03
2022-09-25T19:27:56.899Z,99900.69
2022-09-25T19:30:23.364Z,99909.78
2022-09-25T19:32:50.841Z,99892.13
2022-09-25T19:35:17.257Z,99896.31
2022-09-25T19:37:43.822Z,99892.56
2022-09-25T19:40:28.943Z,99896.50
2022-09-25T19:42:55.645Z,99895.75
2022-09-25T19:45:22.106Z,99899.56
2022-09-25T19:47:48.972Z,99902.91
2022-09-25T19:50:15.436Z,99906.53
2022-09-25T19:52:41.828Z,99896.53
2022-09-25T19:55:08.599Z,99900.78
2022-09-25T19:57:34.935Z,99900.16
2022-09-25T20:00:01.550Z,99904.38
2022-09-25T20:02:27.949Z,99904.66
2022-09-25T20:04:54.432Z,99906.34
2022-09-25T20:07:20.776Z,99908.59
2022-09-25T20:09:47.437Z,99911.66
2022-09-25T20:12:13.894Z,99909.06
2022-09-25T20:14:40.582Z,99898.66
2022-09-25T20:17:10.116Z,99912.41
2022-09-25T20:19:36.889Z,99912.81
2022-09-25T20:22:03.347Z,99905.19
2022-09-25T20:24:29.732Z,99903.16
2022-09-25T20:26:56.116Z,99898.38
2022-09-25T20:29:22.555Z,99897.91
2022-09-25T20:31:48.950Z,99889.16
2022-09-25T20:34:17.979Z,99884.47
2022-09-25T20:36:44.632Z,99883.06
2022-09-25T20:39:11.151Z,99890.44
2022-09-25T20:41:38.279Z,99886.84
2022-09-25T20:44:05.658Z,99884.63
2022-09-25T20:46:33.116Z,99885.53
2022-09-25T20:49:00.465Z,99886.84
2022-09-25T20:51:29.168Z,99880.78
2022-09-25T20:53:59.318Z,99877.13
2022-09-25T20:56:26.901Z,99877.19
2022-09-25T20:58:54.939Z,99883.84
2022-09-25T21:01:24.256Z,99889.06
2022-09-25T21:03:51.849Z,99891.59
2022-09-25T21:06:27.325Z,99881.81
2022-09-25T21:08:55.869Z,99887.41
2022-09-25T21:11:23.165Z,99876.28
2022-09-25T21:13:51.665Z,99883.38
2022-09-25T21:16:19.561Z,99873.31
2022-09-25T21:18:52.085Z,99871.19
2022-09-25T21:21:19.053Z,99869.72
2022-09-25T21:23:49.950Z,99871.63
2022-09-25T21:26:16.949Z,99864.69
2022-09-25T21:28:47.022Z,99862.72
2022-09-25T21:31:22.011Z,99865.47
2022-09-25T21:33:52.261Z,99856.44
2022-09-25T21:36:19.509Z,99853.50
2022-09-25T21:38:45.864Z,99857.38
2022-09-25T21:41:14.887Z,99855.25
2022-09-25T21:43:41.711Z,99854.50
2022-09-25T21:46:12.812Z,99867.78
2022-09-25T21:48:40.794Z,99868.09
2022-09-25T21:51:08.212Z,99860.38
2022-09-25T21:53:35.617Z,99861.38
2022-09-25T21:56:07.963Z,99861.25
2022-09-25T21:58:35.411Z,99852.97
2022-09-25T22:01:07.065Z,99852.28
2022-09-25T22:03:35.684Z,99858.78
2022-09-25T22:06:04.413Z,99857.69
2022-09-25T22:08:31.446Z,99857.84
2022-09-25T22:10:59.487Z,99857.03
2022-09-25T22:13:31.549Z,99861.84
2022-09-25T22:16:05.505Z,99861.72
2022-09-25T22:18:48.026Z,99853.97
2022-09-25T22:21:17.451Z,99855.75
2022-09-25T22:23:43.923Z,99855.91
2022-09-25T22:26:11.844Z,99856.72
2022-09-25T22:28:38.205Z,99855.91
2022-09-25T22:31:13.859Z,99849.94
2022-09-25T22:33:40.335Z,99854.72
2022-09-25T22:36:08.374Z,99846.16
2022-09-25T22:38:35.123Z,99844.00
2022-09-25T22:41:05.971Z,99844.06
2022-09-25T22:43:33.027Z,99840.44
2022-09-25T22:45:59.834Z,99840.63
2022-09-25T22:48:26.726Z,99838.94
2022-09-25T22:50:57.544Z,99841.75
2022-09-25T22:53:24.768Z,99837.81
2022-09-25T22:55:51.480Z,99839.59
2022-09-25T22:58:18.861Z,99835.97
2022-09-25T23:00:48.069Z,99837.25
2022-09-25T23:03:14.941Z,99840.63
2022-09-25T23:05:41.435Z,99832.06
2022-09-25T23:08:08.999Z,99834.34
2022-09-25T23:11:02.679Z,99826.31
2022-09-25T23:13:23.323Z,99822.69
2022-09-25T23:15:49.772Z,99824.22
2022-09-25T23:18:20.831Z,99818.81
2022-09-25T23:20:57.510Z,99815.22
2022-09-25T23:23:23.890Z,99819.22
2022-09-25T23:25:50.220Z,99819.38
2022-09-25T23:28:17.002Z,99811.75
2022-09-25T23:30:43.422Z,99814.31
2022-09-25T23:33:09.828Z,99814.22
2022-09-25T23:35:36.190Z,99815.22
2022-09-25T23:38:03.286Z,99809.84
2022-09-25T23:40:30.253Z,99811.75
2022-09-25T23:42:56.648Z,99814.06
2022-09-25T23:45:22.986Z,99812.34
2022-09-25T23:47:49.397Z,99814.91
2022-09-25T23:50:15.842Z,99803.56
2022-09-25T23:52:42.157Z,99804.44
2022-09-25T23:55:08.804Z,99802.97
2022-09-25T23:57:37.490Z,99803.16
